Time;durP1;ratioP1;P1;durP2;ratioP2;P2;SDS_P1;SDS_P2;PMS_P1;PMS_P2;Temp;Humidity;BMP_temperature;BMP_pressure;BME280_temperature;BME280_humidity;BME280_pressure;Samples;Min_cycle;Max_cycle;Signal;HPM_P1;HPM_P2
2021/04/13 00:01:33;;;;;;;7.28;1.70;;;1.60;99.90;;;;;;5108420;28;20085;-67
2021/04/13 00:04:10;;;;;;;6.35;1.77;;;1.60;99.90;;;;;;5107891;28;20034;-67
2021/04/13 00:06:46;;;;;;;5.03;1.90;;;1.70;99.90;;;;;;5107139;28;20119;-67
2021/04/13 00:09:19;;;;;;;10.05;2.20;;;1.70;99.90;;;;;;5107489;28;20067;-67
2021/04/13 00:11:52;;;;;;;3.95;1.80;;;1.60;99.90;;;;;;5107346;28;20040;-67
2021/04/13 00:14:23;;;;;;;8.50;2.35;;;1.60;99.90;;;;;;5095367;28;20071;-67
2021/04/13 00:16:56;;;;;;;4.80;1.90;;;1.60;99.90;;;;;;5107079;28;20538;-67
2021/04/13 00:19:29;;;;;;;6.47;2.25;;;1.60;99.90;;;;;;5107952;28;20115;-67
2021/04/13 00:21:55;;;;;;;9.55;2.08;;;1.60;99.90;;;;;;5107490;28;20130;-67
2021/04/13 00:24:25;;;;;;;4.22;1.75;;;1.60;99.90;;;;;;5107259;28;20040;-67
2021/04/13 00:26:56;;;;;;;9.52;1.70;;;1.50;99.90;;;;;;5108044;28;20070;-67
2021/04/13 00:29:26;;;;;;;5.97;2.38;;;1.50;99.90;;;;;;5108186;28;20048;-67
2021/04/13 00:31:56;;;;;;;3.90;1.48;;;1.40;99.90;;;;;;5107295;28;20052;-67
2021/04/13 00:34:23;;;;;;;7.28;2.08;;;1.40;99.90;;;;;;5107146;28;20047;-67
2021/04/13 00:36:51;;;;;;;3.97;1.70;;;1.40;99.90;;;;;;5089031;28;20044;-67
2021/04/13 00:39:24;;;;;;;6.65;1.98;;;1.40;99.90;;;;;;5106835;28;20101;-67
2021/04/13 00:42:03;;;;;;;7.10;1.98;;;1.40;99.90;;;;;;5106827;28;20097;-67
2021/04/13 00:44:34;;;;;;;7.32;1.80;;;1.30;99.90;;;;;;5107155;28;20043;-67
2021/04/13 00:47:16;;;;;;;4.82;1.85;;;1.30;99.90;;;;;;5105485;28;20086;-67
2021/04/13 00:49:48;;;;;;;8.95;2.10;;;1.30;99.90;;;;;;5106605;28;20048;-67
2021/04/13 00:52:19;;;;;;;6.13;1.90;;;1.30;99.90;;;;;;5106792;28;20048;-67
2021/04/13 00:54:52;;;;;;;;;;;1.30;99.90;;;;;;5107768;28;20067;-67
2021/04/13 00:57:32;;;;;;;12.18;2.13;;;1.30;99.90;;;;;;5106768;28;19920;-67
2021/04/13 01:00:00;;;;;;;6.72;2.10;;;1.30;99.90;;;;;;5106001;28;20043;-67
2021/04/13 01:02:31;;;;;;;8.52;2.20;;;1.30;99.90;;;;;;5106872;28;20048;-67
2021/04/13 01:05:13;;;;;;;9.55;2.10;;;1.30;99.90;;;;;;5106406;28;20050;-67
2021/04/13 01:07:42;;;;;;;8.73;2.35;;;1.30;99.90;;;;;;5106189;28;20048;-67
2021/04/13 01:10:33;;;;;;;8.82;1.92;;;1.20;99.90;;;;;;5107212;28;20173;-67
2021/04/13 01:13:28;;;;;;;8.60;1.80;;;1.20;99.90;;;;;;5099734;28;20052;-67
2021/04/13 01:15:55;;;;;;;9.98;1.75;;;1.20;99.90;;;;;;5106611;28;20051;-67
2021/04/13 01:18:31;;;;;;;5.45;2.00;;;1.20;99.90;;;;;;5099468;28;20424;-67
2021/04/13 01:21:22;;;;;;;6.93;1.80;;;1.20;99.90;;;;;;5106253;28;20044;-67
2021/04/13 01:23:53;;;;;;;8.32;1.92;;;1.30;99.90;;;;;;5106256;28;20138;-67
2021/04/13 01:26:20;;;;;;;6.18;2.10;;;1.30;99.90;;;;;;5105931;28;20044;-67
2021/04/13 01:28:48;;;;;;;7.93;1.90;;;1.40;99.90;;;;;;5106241;28;20093;-67
2021/04/13 01:31:49;;;;;;;8.65;2.15;;;1.50;99.90;;;;;;5105995;28;20119;-67
2021/04/13 01:34:21;;;;;;;6.53;2.20;;;1.50;99.90;;;;;;5097403;28;20499;-67
2021/04/13 01:37:15;;;;;;;5.90;1.83;;;1.50;99.90;;;;;;5105838;28;20052;-67
2021/04/13 01:39:45;;;;;;;6.72;1.80;;;1.60;99.90;;;;;;5105664;28;20043;-67
2021/04/13 01:42:13;;;;;;;6.82;1.50;;;1.50;99.90;;;;;;5105708;28;20044;-67
2021/04/13 01:44:57;;;;;;;8.82;2.28;;;1.50;99.90;;;;;;5105716;28;20079;-67
2021/04/13 01:47:24;;;;;;;10.73;2.03;;;1.50;99.90;;;;;;5105744;28;20048;-67
2021/04/13 01:49:50;;;;;;;9.35;2.40;;;1.50;99.90;;;;;;5105436;28;20036;-67
2021/04/13 01:52:27;;;;;;;5.80;2.30;;;1.40;99.90;;;;;;5106007;28;20055;-67
2021/04/13 01:54:54;;;;;;;5.07;1.83;;;1.40;99.90;;;;;;5106164;28;20131;-67
2021/04/13 01:57:41;;;;;;;8.52;1.60;;;1.40;99.90;;;;;;5105523;28;20036;-67
2021/04/13 02:00:25;;;;;;;9.70;2.10;;;1.40;99.90;;;;;;5094653;28;20055;-67
2021/04/13 02:03:00;;;;;;;8.55;2.00;;;1.30;99.90;;;;;;5103281;28;20055;-67
2021/04/13 02:05:29;;;;;;;9.52;2.10;;;1.30;99.90;;;;;;5106278;28;20051;-67
2021/04/13 02:08:04;;;;;;;8.55;1.63;;;1.30;99.90;;;;;;5105669;28;20043;-67
2021/04/13 02:10:40;;;;;;;6.05;1.58;;;1.20;99.90;;;;;;5105618;28;20069;-67
2021/04/13 02:13:23;;;;;;;12.35;1.90;;;1.20;99.90;;;;;;5092566;28;20506;-67
2021/04/13 02:16:04;;;;;;;6.88;1.83;;;1.20;99.90;;;;;;5105365;28;20108;-67
2021/04/13 02:18:40;;;;;;;9.18;1.98;;;1.30;99.90;;;;;;5104784;28;20579;-67
2021/04/13 02:21:15;;;;;;;10.25;2.75;;;1.30;99.90;;;;;;5104860;28;20044;-66
2021/04/13 02:23:47;;;;;;;9.38;2.08;;;1.40;99.90;;;;;;5105227;28;20078;-66
2021/04/13 02:26:14;;;;;;;7.95;2.00;;;1.40;99.90;;;;;;5092426;28;20047;-66
2021/04/13 02:28:42;;;;;;;7.20;1.90;;;1.40;99.90;;;;;;5104915;28;20071;-67
2021/04/13 02:31:10;;;;;;;7.45;1.95;;;1.40;99.90;;;;;;5105005;28;20039;-67
2021/04/13 02:33:42;;;;;;;3.00;1.80;;;1.30;99.90;;;;;;5104830;28;20044;-67
2021/04/13 02:36:17;;;;;;;13.40;2.65;;;1.20;99.90;;;;;;5105137;28;20052;-67
2021/04/13 02:38:55;;;;;;;6.35;1.95;;;1.10;99.90;;;;;;5104839;28;20040;-67
2021/04/13 02:41:23;;;;;;;12.10;2.10;;;1.10;99.90;;;;;;5104687;28;20051;-67
2021/04/13 02:43:54;;;;;;;6.15;2.33;;;1.00;99.90;;;;;;5086855;28;20036;-67
2021/04/13 02:46:29;;;;;;;7.38;2.05;;;0.90;99.90;;;;;;5104908;28;20071;-67
2021/04/13 02:49:17;;;;;;;7.10;2.10;;;0.90;99.90;;;;;;5104792;28;20330;-67
2021/04/13 02:51:54;;;;;;;8.95;1.90;;;0.90;99.90;;;;;;5105066;28;20047;-67
2021/04/13 02:54:26;;;;;;;8.27;2.00;;;0.80;99.90;;;;;;5104802;28;20052;-67
2021/04/13 02:57:05;;;;;;;12.77;2.25;;;0.90;99.90;;;;;;5104622;28;20059;-67
2021/04/13 02:59:35;;;;;;;11.30;2.50;;;0.90;99.90;;;;;;5104909;28;20051;-67
2021/04/13 03:02:13;;;;;;;8.77;1.90;;;0.90;99.90;;;;;;5104829;28;20048;-67
2021/04/13 03:04:53;;;;;;;11.55;2.70;;;0.90;99.90;;;;;;5106646;28;20107;-67
2021/04/13 03:07:25;;;;;;;14.13;2.85;;;0.90;99.90;;;;;;5114185;28;20090;-67
2021/04/13 03:09:54;;;;;;;6.80;2.20;;;0.90;99.90;;;;;;5108586;28;20052;-67
2021/04/13 03:12:20;;;;;;;11.02;2.40;;;0.80;99.90;;;;;;5108685;28;20063;-67
2021/04/13 03:14:50;;;;;;;8.35;2.10;;;0.80;99.90;;;;;;5108727;28;20040;-67
2021/04/13 03:17:23;;;;;;;11.88;2.30;;;0.80;99.90;;;;;;5101863;28;20050;-67
2021/04/13 03:19:52;;;;;;;10.73;2.50;;;0.80;99.90;;;;;;5108097;28;20044;-67
2021/04/13 03:22:19;;;;;;;13.68;2.67;;;0.80;99.90;;;;;;5108675;28;20095;-67
2021/04/13 03:24:49;;;;;;;12.35;2.40;;;0.90;99.90;;;;;;5108662;28;20108;-67
2021/04/13 03:27:28;;;;;;;9.93;2.00;;;0.90;99.90;;;;;;5108355;28;20135;-67
2021/04/13 03:30:18;;;;;;;10.07;2.27;;;0.90;99.90;;;;;;5108418;28;20052;-67
2021/04/13 03:32:52;;;;;;;9.02;2.80;;;0.90;99.90;;;;;;5108505;28;20304;-67
2021/04/13 03:35:20;;;;;;;9.60;3.25;;;0.90;99.90;;;;;;5108003;28;20052;-67
2021/04/13 03:37:47;;;;;;;6.15;1.95;;;0.90;99.90;;;;;;5108237;28;20101;-67
2021/04/13 03:40:18;;;;;;;7.65;1.98;;;1.00;99.90;;;;;;5108654;28;20044;-67
2021/04/13 03:42:45;;;;;;;6.97;2.17;;;0.90;99.90;;;;;;5108834;28;20044;-67
2021/04/13 03:45:14;;;;;;;8.90;1.83;;;0.80;99.90;;;;;;5108910;28;20070;-67
2021/04/13 03:47:40;;;;;;;7.43;1.90;;;0.80;99.90;;;;;;5108785;28;20036;-67
2021/04/13 03:50:14;;;;;;;9.50;2.33;;;0.70;99.90;;;;;;5108075;28;20040;-67
2021/04/13 03:52:40;;;;;;;8.02;2.03;;;0.70;99.90;;;;;;5108156;28;20500;-67
2021/04/13 03:55:21;;;;;;;10.57;2.40;;;0.70;99.90;;;;;;5108303;28;20064;-67
2021/04/13 03:57:47;;;;;;;8.02;2.03;;;0.70;99.90;;;;;;5107276;28;20042;-67
2021/04/13 04:00:17;;;;;;;9.98;2.17;;;0.60;99.90;;;;;;5107842;28;20044;-67
2021/04/13 04:02:43;;;;;;;12.70;2.50;;;0.70;99.90;;;;;;5107590;28;20032;-67
2021/04/13 04:05:22;;;;;;;13.60;2.50;;;0.60;99.90;;;;;;5107816;28;20048;-67
2021/04/13 04:10:46;;;;;;;7.70;2.72;;;0.70;99.90;;;;;;5107418;28;20048;-67
2021/04/13 04:13:21;;;;;;;;;;;0.60;99.90;;;;;;5108333;28;20073;-67
2021/04/13 04:16:20;;;;;;;8.90;2.15;;;0.60;99.90;;;;;;5107189;28;19924;-67
2021/04/13 04:18:49;;;;;;;7.03;2.47;;;0.90;99.90;;;;;;5106809;28;20135;-67
2021/04/13 04:21:36;;;;;;;8.43;2.40;;;1.20;99.90;;;;;;5106212;28;20044;-67
2021/04/13 04:24:05;;;;;;;12.68;2.58;;;1.40;99.90;;;;;;5106239;28;20062;-66
2021/04/13 04:26:46;;;;;;;12.13;2.72;;;1.70;99.90;;;;;;5106142;28;20135;-66
2021/04/13 04:29:29;;;;;;;16.00;2.10;;;2.00;99.90;;;;;;5106164;28;20131;-66
2021/04/13 04:32:15;;;;;;;7.40;1.77;;;1.90;99.90;;;;;;5106725;28;20059;-66
2021/04/13 04:34:51;;;;;;;8.85;1.85;;;1.90;99.90;;;;;;5093873;28;20515;-67
2021/04/13 04:37:31;;;;;;;11.10;1.63;;;1.80;99.90;;;;;;5105216;28;20047;-67
2021/04/13 04:40:36;;;;;;;5.90;1.50;;;1.70;99.90;;;;;;5083008;28;20040;-67
2021/04/13 04:43:15;;;;;;;6.85;1.90;;;1.60;99.90;;;;;;5076878;28;20072;-67
2021/04/13 04:45:44;;;;;;;7.40;1.30;;;1.60;99.90;;;;;;5096439;28;20173;-66
2021/04/13 04:48:19;;;;;;;9.02;1.95;;;1.50;99.90;;;;;;5086287;28;20116;-66
2021/04/13 04:50:46;;;;;;;6.82;1.77;;;1.50;99.90;;;;;;5085012;28;20086;-67
2021/04/13 04:53:16;;;;;;;7.03;2.03;;;1.60;99.90;;;;;;5096730;28;20127;-67
2021/04/13 04:55:42;;;;;;;7.72;1.55;;;1.50;99.90;;;;;;5085878;28;20527;-67
2021/04/13 04:58:08;;;;;;;12.50;2.40;;;1.50;99.90;;;;;;5097059;28;20940;-67
2021/04/13 05:00:34;;;;;;;7.18;1.77;;;1.50;99.90;;;;;;5085397;28;20056;-67
2021/04/13 05:03:00;;;;;;;12.88;2.10;;;1.50;99.90;;;;;;5098007;28;20068;-67
2021/04/13 05:05:25;;;;;;;10.93;2.40;;;1.50;99.90;;;;;;5087426;28;20043;-68
2021/04/13 05:07:52;;;;;;;12.85;2.92;;;1.40;99.90;;;;;;5099051;28;20040;-67
2021/04/13 05:10:18;;;;;;;11.88;2.30;;;1.40;99.90;;;;;;5086663;28;20212;-67
2021/04/13 05:12:43;;;;;;;9.00;1.92;;;1.30;99.90;;;;;;5097032;28;20405;-68
2021/04/13 05:15:11;;;;;;;10.43;2.03;;;1.20;99.90;;;;;;5087866;28;20117;-68
2021/04/13 05:17:37;;;;;;;14.48;2.47;;;1.20;99.90;;;;;;5097242;28;20117;-67
2021/04/13 05:20:04;;;;;;;16.55;2.53;;;1.20;99.90;;;;;;5024119;28;648859;-67
2021/04/13 05:22:31;;;;;;;14.90;2.45;;;1.10;99.90;;;;;;5094093;28;20046;-67
2021/04/13 05:24:56;;;;;;;11.95;2.80;;;1.20;99.90;;;;;;5078954;28;20056;-63
2021/04/13 05:27:22;;;;;;;10.43;2.25;;;1.20;99.90;;;;;;5084641;28;20475;-62
2021/04/13 05:29:48;;;;;;;10.38;2.70;;;1.30;99.90;;;;;;5088069;28;20051;-62
2021/04/13 05:32:14;;;;;;;15.15;2.88;;;1.30;99.90;;;;;;5093041;28;20052;-62
2021/04/13 05:34:39;;;;;;;12.20;2.63;;;1.30;99.90;;;;;;5088773;28;20040;-62
2021/04/13 05:37:05;;;;;;;16.35;2.75;;;1.40;99.90;;;;;;5090310;28;20122;-62
2021/04/13 05:39:31;;;;;;;12.27;4.00;;;1.50;99.90;;;;;;5086185;28;20329;-62
2021/04/13 05:41:59;;;;;;;11.88;3.35;;;1.50;99.90;;;;;;5097774;28;20048;-62
2021/04/13 05:44:26;;;;;;;11.88;2.67;;;1.50;99.90;;;;;;5089937;28;20461;-62
2021/04/13 05:46:52;;;;;;;12.98;2.63;;;1.60;99.90;;;;;;5098685;28;20060;-62
2021/04/13 05:49:19;;;;;;;9.73;2.33;;;1.70;99.90;;;;;;5100383;28;20077;-62
2021/04/13 05:51:45;;;;;;;10.32;2.50;;;1.70;99.90;;;;;;5086982;28;20040;-62
2021/04/13 05:54:11;;;;;;;10.93;2.38;;;1.70;99.90;;;;;;5097952;28;20052;-62
2021/04/13 05:56:40;;;;;;;17.70;3.08;;;1.80;99.90;;;;;;5085788;28;20055;-62
2021/04/13 05:59:08;;;;;;;13.85;2.80;;;1.90;99.90;;;;;;5097552;28;20040;-62
2021/04/13 06:01:34;;;;;;;7.80;2.22;;;2.00;99.90;;;;;;5085611;28;20048;-62
2021/04/13 06:04:02;;;;;;;14.43;2.30;;;2.00;99.90;;;;;;5081941;28;20039;-62
2021/04/13 06:06:28;;;;;;;6.97;2.15;;;2.10;99.90;;;;;;5086668;28;20079;-62
2021/04/13 06:08:54;;;;;;;12.02;2.35;;;2.20;99.90;;;;;;5095874;28;20055;-65
2021/04/13 06:11:28;;;;;;;13.45;2.70;;;2.20;99.90;;;;;;5092802;28;20523;-64
2021/04/13 06:13:56;;;;;;;10.77;2.47;;;2.30;99.90;;;;;;5090329;28;20082;-66
2021/04/13 06:16:23;;;;;;;15.27;2.45;;;2.50;99.90;;;;;;5083868;28;20051;-65
2021/04/13 06:18:49;;;;;;;14.18;2.40;;;2.60;99.90;;;;;;5074385;28;20048;-66
2021/04/13 06:21:15;;;;;;;17.17;3.20;;;2.70;99.90;;;;;;5087031;28;20059;-67
2021/04/13 06:23:42;;;;;;;9.30;2.30;;;2.80;99.90;;;;;;5099043;28;20040;-66
2021/04/13 06:26:07;;;;;;;11.38;2.05;;;3.00;99.90;;;;;;5073598;28;20159;-65
2021/04/13 06:28:33;;;;;;;13.82;2.40;;;3.10;99.90;;;;;;5097007;28;20093;-65
2021/04/13 06:30:59;;;;;;;10.25;2.47;;;3.20;99.90;;;;;;5085603;28;20083;-66
2021/04/13 06:33:27;;;;;;;11.13;1.98;;;3.40;99.90;;;;;;5095642;28;20062;-65
2021/04/13 06:35:56;;;;;;;10.40;2.03;;;3.50;99.90;;;;;;5083483;28;20062;-65
2021/04/13 06:38:23;;;;;;;12.23;2.40;;;3.60;99.90;;;;;;5097130;28;20048;-65
2021/04/13 06:41:13;;;;;;;8.85;2.17;;;3.80;99.90;;;;;;5083322;28;20677;-65
2021/04/13 06:43:45;;;;;;;11.95;2.78;;;3.90;99.90;;;;;;5087923;28;20107;-65
2021/04/13 06:46:25;;;;;;;12.68;2.40;;;4.00;99.90;;;;;;5077310;28;20056;-66
2021/04/13 06:49:06;;;;;;;11.07;2.22;;;4.20;99.90;;;;;;5098047;28;20132;-65
2021/04/13 06:51:58;;;;;;;10.40;1.85;;;4.30;99.90;;;;;;5083871;28;20048;-65
2021/04/13 06:55:02;;;;;;;10.57;1.98;;;4.40;99.90;;;;;;5085574;28;20048;-66
2021/04/13 06:57:53;;;;;;;16.45;2.53;;;4.50;99.90;;;;;;5095522;28;20036;-65
2021/04/13 07:00:42;;;;;;;8.73;2.22;;;4.50;99.90;;;;;;5081598;28;20055;-65
2021/04/13 07:03:29;;;;;;;9.73;1.65;;;4.60;99.90;;;;;;5094152;28;20051;-65
2021/04/13 07:06:13;;;;;;;8.57;1.70;;;4.70;99.90;;;;;;5087676;28;20093;-65
2021/04/13 07:08:49;;;;;;;12.80;2.05;;;4.80;99.90;;;;;;5094848;28;20043;-65
2021/04/13 07:11:15;;;;;;;10.23;2.08;;;4.80;99.90;;;;;;5083416;28;20052;-65
2021/04/13 07:14:02;;;;;;;8.55;1.80;;;5.00;99.90;;;;;;5092857;28;20040;-65
2021/04/13 07:16:42;;;;;;;12.90;2.33;;;5.00;99.90;;;;;;5083836;28;20146;-66
2021/04/13 07:19:22;;;;;;;9.20;1.60;;;5.10;99.90;;;;;;5066276;28;20048;-65
2021/04/13 07:22:15;;;;;;;6.72;1.95;;;5.20;99.90;;;;;;5081406;28;20090;-66
2021/04/13 07:25:06;;;;;;;6.38;1.58;;;5.30;99.90;;;;;;5086601;28;20036;-65
2021/04/13 07:27:49;;;;;;;9.95;2.85;;;5.50;99.90;;;;;;5090975;28;20100;-65
2021/04/13 07:30:18;;;;;;;12.02;1.77;;;5.50;99.90;;;;;;5086292;28;20047;-65
2021/04/13 07:32:45;;;;;;;9.45;2.38;;;5.60;99.90;;;;;;5096533;28;20104;-65
2021/04/13 07:35:16;;;;;;;8.90;1.77;;;5.60;99.90;;;;;;5083289;28;20134;-65
2021/04/13 07:37:49;;;;;;;;;;;5.80;99.90;;;;;;5094437;28;20067;-66
2021/04/13 07:40:30;;;;;;;6.82;1.95;;;5.90;99.90;;;;;;5083618;28;19983;-66
2021/04/13 07:42:59;;;;;;;12.93;1.80;;;6.10;99.90;;;;;;5094864;28;20077;-65
2021/04/13 07:45:36;;;;;;;9.43;1.50;;;6.00;99.90;;;;;;5086432;28;20051;-65
2021/04/13 07:48:22;;;;;;;12.80;2.22;;;6.10;99.90;;;;;;5096709;28;20048;-65
2021/04/13 07:51:02;;;;;;;12.20;1.88;;;6.10;99.90;;;;;;5087712;28;20073;-65
2021/04/13 07:53:43;;;;;;;;;;;6.10;99.40;;;;;;5098883;28;20036;-66
2021/04/13 07:56:33;;;;;;;5.95;1.45;;;6.20;99.70;;;;;;5082419;28;19980;-66
2021/04/13 07:59:07;;;;;;;10.33;1.37;;;6.30;98.90;;;;;;5098486;28;20086;-66
2021/04/13 08:01:33;;;;;;;10.05;1.70;;;6.30;99.90;;;;;;5079725;28;20440;-66
2021/04/13 08:04:01;;;;;;;9.85;1.88;;;6.40;99.60;;;;;;5101050;28;20494;-66
2021/04/13 08:06:27;;;;;;;10.50;1.38;;;6.50;99.30;;;;;;5082197;28;20071;-66
2021/04/13 08:09:24;;;;;;;9.30;2.40;;;6.60;99.20;;;;;;5100726;28;20048;-65
2021/04/13 08:12:08;;;;;;;6.43;1.95;;;6.50;98.70;;;;;;5086861;28;20048;-66
2021/04/13 08:14:42;;;;;;;9.65;2.22;;;6.60;98.30;;;;;;5099093;28;20115;-66
2021/04/13 08:17:20;;;;;;;11.70;1.73;;;6.50;98.10;;;;;;5072157;28;20048;-66
2021/04/13 08:20:01;;;;;;;8.13;1.33;;;6.50;97.50;;;;;;5081732;28;20066;-66
2021/04/13 08:22:28;;;;;;;11.63;1.95;;;6.50;98.10;;;;;;5078662;28;20519;-66
2021/04/13 08:24:58;;;;;;;7.75;1.40;;;6.50;97.60;;;;;;5085555;28;20054;-66
2021/04/13 08:27:27;;;;;;;8.35;1.52;;;6.60;95.40;;;;;;5099160;28;20068;-65
2021/04/13 08:30:05;;;;;;;9.90;1.90;;;6.90;97.10;;;;;;5089627;28;20086;-65
2021/04/13 08:32:50;;;;;;;6.82;1.00;;;7.10;95.00;;;;;;5094340;28;20416;-65
2021/04/13 08:35:21;;;;;;;8.60;1.77;;;7.10;95.00;;;;;;5087821;28;20043;-66
2021/04/13 08:38:07;;;;;;;8.10;2.00;;;7.20;94.40;;;;;;5096724;28;20363;-65
2021/04/13 08:40:44;;;;;;;7.05;1.30;;;7.50;93.60;;;;;;5072351;28;20638;-66
2021/04/13 08:43:23;;;;;;;8.20;1.55;;;7.60;92.60;;;;;;5091117;28;20036;-65
2021/04/13 08:46:16;;;;;;;10.10;1.40;;;7.60;94.20;;;;;;5089014;28;20059;-66
2021/04/13 08:48:51;;;;;;;13.65;2.05;;;7.20;94.20;;;;;;5097239;28;20086;-66
2021/04/13 08:51:39;;;;;;;4.22;1.02;;;7.00;94.90;;;;;;5087358;28;20083;-66
2021/04/13 08:54:33;;;;;;;7.18;2.13;;;6.60;94.00;;;;;;5099739;28;20051;-66
2021/04/13 08:57:17;;;;;;;8.52;1.40;;;6.20;95.90;;;;;;5085529;28;20056;-65
2021/04/13 08:59:55;;;;;;;7.38;1.20;;;6.10;97.40;;;;;;5098104;28;20040;-66
2021/04/13 09:02:32;;;;;;;6.93;1.42;;;6.10;98.10;;;;;;5070280;28;20075;-66
2021/04/13 09:05:20;;;;;;;8.73;1.83;;;6.00;97.00;;;;;;5086878;28;20139;-66
2021/04/13 09:07:46;;;;;;;8.40;1.10;;;6.20;98.40;;;;;;5096803;28;20040;-66
2021/04/13 09:10:30;;;;;;;3.55;0.98;;;6.50;98.00;;;;;;5088943;28;20068;-66
2021/04/13 09:13:18;;;;;;;4.15;1.23;;;6.80;95.60;;;;;;5099448;28;20040;-66
2021/04/13 09:15:55;;;;;;;3.75;0.90;;;7.10;95.00;;;;;;5088357;28;20128;-66
2021/04/13 09:18:56;;;;;;;3.92;1.33;;;7.30;89.70;;;;;;5091235;28;20043;-66
2021/04/13 09:21:31;;;;;;;3.55;1.40;;;7.50;90.70;;;;;;4977267;28;20178;-66
2021/04/13 09:24:39;;;;;;;3.65;1.08;;;7.70;91.40;;;;;;4994357;28;20070;-66
2021/04/13 09:27:19;;;;;;;3.88;1.00;;;7.90;91.60;;;;;;4904850;29;20049;-66
2021/04/13 09:29:49;;;;;;;3.67;0.90;;;7.90;91.00;;;;;;4917399;29;20094;-66
2021/04/13 09:32:29;;;;;;;5.75;1.05;;;8.10;90.30;;;;;;4907802;29;20060;-66
2021/04/13 09:35:06;;;;;;;9.73;1.33;;;8.10;90.60;;;;;;4917023;29;20056;-66
2021/04/13 09:37:49;;;;;;;2.60;1.02;;;7.90;90.10;;;;;;4893231;29;20090;-66
2021/04/13 09:40:28;;;;;;;4.95;1.40;;;7.70;92.40;;;;;;4909864;29;20189;-66
2021/04/13 09:43:01;;;;;;;7.20;1.65;;;7.30;95.20;;;;;;4919650;29;20111;-66
2021/04/13 09:46:02;;;;;;;4.80;1.10;;;6.90;95.80;;;;;;4908361;29;20312;-66
2021/04/13 09:48:52;;;;;;;4.68;1.40;;;6.60;96.70;;;;;;4912977;29;20111;-66
2021/04/13 09:51:55;;;;;;;6.30;1.10;;;6.70;95.20;;;;;;4909043;29;20115;-66
2021/04/13 09:54:29;;;;;;;7.75;1.50;;;7.00;98.40;;;;;;4918277;29;20040;-66
2021/04/13 09:57:21;;;;;;;7.93;1.52;;;7.40;97.50;;;;;;4918476;28;20056;-66
2021/04/13 10:00:24;;;;;;;6.53;1.00;;;7.70;96.10;;;;;;4994800;28;20205;-66
2021/04/13 10:02:56;;;;;;;5.60;1.38;;;7.90;93.70;;;;;;5035719;28;20070;-66
2021/04/13 10:05:30;;;;;;;4.50;0.90;;;8.30;90.20;;;;;;5065674;28;20075;-66
2021/04/13 10:07:59;;;;;;;4.60;0.88;;;8.20;86.90;;;;;;5074628;28;20055;-66
2021/04/13 10:10:46;;;;;;;2.95;1.00;;;8.10;88.50;;;;;;5067924;28;20044;-66
2021/04/13 10:13:40;;;;;;;6.00;1.42;;;8.10;86.10;;;;;;5070569;28;20568;-66
2021/04/13 10:16:27;;;;;;;4.95;0.93;;;8.00;85.60;;;;;;5064906;28;20174;-66
2021/04/13 10:19:23;;;;;;;4.65;1.33;;;7.90;88.90;;;;;;5061929;28;20583;-66
2021/04/13 10:22:09;;;;;;;5.80;1.35;;;8.00;90.80;;;;;;5079368;28;20097;-66
2021/04/13 10:25:02;;;;;;;6.57;1.02;;;8.00;90.30;;;;;;5077379;28;20334;-66
2021/04/13 10:27:46;;;;;;;4.28;1.23;;;8.00;91.00;;;;;;5076557;28;20573;-66
2021/04/13 10:30:44;;;;;;;3.42;1.10;;;8.20;88.80;;;;;;5087180;28;20048;-66
2021/04/13 10:33:28;;;;;;;3.05;0.88;;;8.50;90.90;;;;;;5088170;28;20508;-66
2021/04/13 10:36:09;;;;;;;3.38;0.70;;;8.60;85.50;;;;;;5077780;28;20068;-66
2021/04/13 10:38:40;;;;;;;4.25;0.93;;;8.60;86.40;;;;;;5087602;28;20040;-66
2021/04/13 10:41:18;;;;;;;1.63;0.82;;;8.60;88.30;;;;;;5086380;28;20040;-66
2021/04/13 10:44:22;;;;;;;6.25;1.15;;;8.40;89.40;;;;;;5094043;28;20047;-65
2021/04/13 10:47:25;;;;;;;4.47;1.02;;;8.20;88.90;;;;;;5083007;28;20447;-66
2021/04/13 10:50:28;;;;;;;5.38;1.45;;;8.00;88.80;;;;;;5094531;28;20123;-66
2021/04/13 10:52:59;;;;;;;5.05;1.33;;;8.00;89.30;;;;;;5064316;28;20049;-67
2021/04/13 10:55:44;;;;;;;3.28;0.75;;;8.00;90.50;;;;;;5068482;28;20489;-67
2021/04/13 10:58:10;;;;;;;7.45;1.00;;;8.10;89.10;;;;;;5087724;28;20044;-67
2021/04/13 11:00:51;;;;;;;8.30;1.10;;;8.30;89.00;;;;;;5068916;28;20082;-67
2021/04/13 11:03:41;;;;;;;6.35;1.63;;;8.50;87.60;;;;;;5076982;28;20048;-67
2021/04/13 11:06:13;;;;;;;;;;;8.70;80.90;;;;;;5066486;28;20044;-67
2021/04/13 11:08:51;;;;;;;5.38;1.17;;;8.90;78.70;;;;;;5082764;28;19928;-67
2021/04/13 11:11:52;;;;;;;4.97;0.90;;;8.90;81.00;;;;;;5072332;28;20126;-67
2021/04/13 11:14:50;;;;;;;8.00;1.60;;;8.80;80.60;;;;;;5060722;28;20056;-67
2021/04/13 11:17:19;;;;;;;5.50;1.23;;;8.70;79.60;;;;;;5079864;28;20189;-67
2021/04/13 11:20:03;;;;;;;4.32;0.90;;;8.90;83.30;;;;;;5078928;28;20394;-67
2021/04/13 11:22:32;;;;;;;4.05;1.05;;;9.00;83.20;;;;;;5056887;28;20071;-67
2021/04/13 11:25:32;;;;;;;6.20;1.10;;;9.30;88.40;;;;;;5075763;28;20106;-66
2021/04/13 11:28:13;;;;;;;3.08;0.90;;;8.30;88.70;;;;;;5053540;28;20052;-67
2021/04/13 11:30:57;;;;;;;3.42;1.10;;;7.00;90.80;;;;;;5060328;28;20052;-67
2021/04/13 11:33:42;;;;;;;5.28;1.30;;;6.60;93.00;;;;;;5068763;28;20108;-67
2021/04/13 11:36:30;;;;;;;4.30;1.10;;;6.50;94.30;;;;;;5067779;28;20340;-67
2021/04/13 11:39:12;;;;;;;2.55;0.90;;;6.60;95.70;;;;;;5064721;28;20053;-67
2021/04/13 11:42:09;;;;;;;3.40;0.80;;;6.70;95.00;;;;;;5049745;28;20048;-67
2021/04/13 11:44:43;;;;;;;6.43;1.35;;;7.00;96.10;;;;;;5062755;28;20063;-67
2021/04/13 11:47:20;;;;;;;6.18;1.17;;;7.50;98.60;;;;;;5067441;28;20107;-67
2021/04/13 11:49:57;;;;;;;2.75;0.88;;;8.10;96.70;;;;;;5078429;28;20054;-67
2021/04/13 11:52:37;;;;;;;5.95;1.13;;;8.60;96.70;;;;;;5069156;28;20528;-67
2021/04/13 11:55:23;;;;;;;4.40;0.80;;;8.80;93.20;;;;;;5080769;28;20045;-67
2021/04/13 11:58:17;;;;;;;3.70;0.80;;;8.50;90.10;;;;;;5068921;28;20170;-67
2021/04/13 12:00:44;;;;;;;3.50;0.70;;;8.10;91.90;;;;;;5063586;28;20050;-67
2021/04/13 12:03:31;;;;;;;3.40;1.02;;;7.80;90.70;;;;;;5052148;28;20120;-67
2021/04/13 12:06:06;;;;;;;2.03;0.68;;;7.80;92.00;;;;;;5067075;28;20054;-67
2021/04/13 12:08:52;;;;;;;4.78;0.93;;;7.70;93.50;;;;;;5077087;28;20033;-67
2021/04/13 12:11:38;;;;;;;1.88;0.70;;;7.60;92.40;;;;;;5066638;28;20052;-67
2021/04/13 12:14:28;;;;;;;5.78;0.82;;;7.60;91.30;;;;;;5056669;28;20045;-67
2021/04/13 12:16:54;;;;;;;7.13;1.23;;;7.90;92.80;;;;;;5063065;28;20049;-67
2021/04/13 12:19:22;;;;;;;4.95;1.13;;;8.30;91.20;;;;;;5063898;28;20082;-67
2021/04/13 12:21:49;;;;;;;4.57;0.90;;;8.60;90.80;;;;;;5083685;28;20130;-67
2021/04/13 12:24:42;;;;;;;3.38;0.77;;;8.60;90.50;;;;;;5098834;28;20432;-67
2021/04/13 12:27:26;;;;;;;3.28;0.80;;;8.40;87.60;;;;;;5083367;28;20565;-66
2021/04/13 12:30:32;;;;;;;4.30;0.77;;;8.30;81.00;;;;;;5099420;28;20054;-67
2021/04/13 12:32:59;;;;;;;3.03;0.93;;;7.90;84.20;;;;;;5063550;28;20048;-67
2021/04/13 12:35:48;;;;;;;5.80;0.85;;;7.90;83.60;;;;;;5097295;28;20089;-67
2021/04/13 12:38:35;;;;;;;4.32;1.00;;;8.00;87.60;;;;;;5071395;28;20247;-67
2021/04/13 12:41:10;;;;;;;4.53;0.70;;;8.60;84.30;;;;;;5085771;28;20048;-67
2021/04/13 12:43:57;;;;;;;2.90;0.60;;;8.80;75.10;;;;;;5077390;28;20040;-67
2021/04/13 12:46:38;;;;;;;2.05;0.60;;;9.20;78.60;;;;;;5066508;28;20059;-67
2021/04/13 12:49:13;;;;;;;7.20;0.70;;;9.40;79.50;;;;;;5065828;28;20052;-67
2021/04/13 12:51:55;;;;;;;5.50;0.80;;;9.50;76.60;;;;;;5068538;28;20060;-67
2021/04/13 12:54:38;;;;;;;2.38;0.80;;;9.70;77.70;;;;;;5079539;28;20040;-67
2021/04/13 12:57:12;;;;;;;3.08;0.98;;;9.80;76.20;;;;;;5063038;28;20080;-67
2021/04/13 12:59:39;;;;;;;5.10;0.88;;;9.80;76.60;;;;;;5078059;28;20119;-67
2021/04/13 13:02:08;;;;;;;2.40;0.70;;;10.00;77.70;;;;;;5071030;28;20135;-67
2021/04/13 13:04:42;;;;;;;3.95;0.93;;;10.00;74.10;;;;;;5082632;28;20112;-67
2021/04/13 13:07:29;;;;;;;3.00;0.90;;;10.10;73.80;;;;;;5063863;28;20047;-67
2021/04/13 13:09:57;;;;;;;5.00;0.75;;;10.10;70.30;;;;;;5076596;28;20044;-67
2021/04/13 13:12:32;;;;;;;2.08;0.68;;;10.20;72.00;;;;;;5065603;28;20047;-67
2021/04/13 13:15:29;;;;;;;2.28;0.90;;;10.20;70.00;;;;;;5075969;28;20056;-67
2021/04/13 13:18:01;;;;;;;1.52;0.80;;;10.10;72.40;;;;;;5066576;28;20098;-67
2021/04/13 13:20:32;;;;;;;3.65;0.77;;;10.20;76.60;;;;;;5065809;28;20104;-67
2021/04/13 13:22:57;;;;;;;6.32;1.02;;;10.50;67.90;;;;;;5048324;28;20056;-67
2021/04/13 13:25:31;;;;;;;2.72;0.70;;;10.60;68.30;;;;;;5058096;28;20497;-67
2021/04/13 13:28:11;;;;;;;2.83;0.80;;;10.90;71.20;;;;;;5031845;28;20050;-67
2021/04/13 13:30:37;;;;;;;3.65;0.80;;;10.80;74.40;;;;;;5057972;28;20036;-67
2021/04/13 13:33:03;;;;;;;2.50;0.90;;;10.90;68.60;;;;;;5046868;28;20073;-67
2021/04/13 13:35:32;;;;;;;8.50;0.80;;;10.50;71.70;;;;;;5058669;28;20040;-67
2021/04/13 13:38:00;;;;;;;2.05;0.82;;;10.20;65.30;;;;;;5032173;28;20049;-67
2021/04/13 13:40:31;;;;;;;2.75;0.82;;;10.20;62.20;;;;;;5082025;28;20032;-67
2021/04/13 13:42:59;;;;;;;3.88;1.42;;;10.40;57.60;;;;;;5046736;28;20167;-67
2021/04/13 13:45:33;;;;;;;2.85;0.70;;;10.30;62.30;;;;;;5055592;28;20145;-67
2021/04/13 13:47:59;;;;;;;3.20;0.90;;;10.00;62.80;;;;;;5044661;28;20123;-67